Emsworth, United Kingdom
Current Conditions -  °F | °C
As of 2:50 PM on Friday 31 Oct 2014 (Local Time) from EGHI Reporting Station
Clear Clear  
Wind Chill: 64°   Ceiling: Unl
Heat Index: 64°   Visibility: 6mi
Dew Point: 55°   Wind: 7mph
Humidity: 73%   Direction: 160°SSE
Pressure: 29.97"   Gusts: NA
Location:  50.85°N, 0.94°W
Report Text: EGHI 311450Z 16006KT 110V200 CAVOK 18/13 Q1015
Loading
Personal Weather Stations






























Interactive Weather Map
Tropical Storm Tracking
New forecast layout! Learn more

10-Day Weather Forecast

Advertisements
Track Severe Weather on mobile